createdAt,value
2019-03-18T00:00:26.357Z,7.43
2019-03-18T00:02:55.666Z,8.83
2019-03-18T00:05:24.989Z,6.27
2019-03-18T00:07:54.311Z,10.80
2019-03-18T00:10:23.709Z,6.50
2019-03-18T00:12:53.028Z,10.20
2019-03-18T00:15:22.354Z,10.63
2019-03-18T00:17:51.695Z,6.17
2019-03-18T00:20:21.088Z,8.93
2019-03-18T00:22:50.405Z,5.90
2019-03-18T00:25:19.734Z,6.10
2019-03-18T00:27:49.048Z,6.33
2019-03-18T00:30:19.516Z,9.57
2019-03-18T00:32:48.896Z,6.57
2019-03-18T00:35:18.235Z,10.27
2019-03-18T00:37:47.534Z,9.83
2019-03-18T00:40:21.351Z,4.63
2019-03-18T00:42:50.734Z,8.03
2019-03-18T00:45:20.088Z,7.03
2019-03-18T00:47:49.394Z,7.67
2019-03-18T00:50:18.778Z,7.17
2019-03-18T00:52:48.368Z,5.63
2019-03-18T00:55:17.828Z,6.20
2019-03-18T00:57:49.101Z,6.37
2019-03-18T01:00:19.126Z,7.67
2019-03-18T01:02:49.799Z,5.70
2019-03-18T01:05:20.570Z,6.30
2019-03-18T01:07:49.918Z,4.83
2019-03-18T01:10:19.227Z,4.37
2019-03-18T01:12:48.574Z,4.40
2019-03-18T01:15:27.459Z,5.10
2019-03-18T01:17:48.926Z,3.83
2019-03-18T01:20:18.399Z,5.47
2019-03-18T01:22:47.719Z,6.70
2019-03-18T01:25:17.038Z,6.23
2019-03-18T01:27:46.363Z,4.70
2019-03-18T01:30:15.739Z,7.20
2019-03-18T01:32:45.058Z,6.23
2019-03-18T01:35:14.372Z,7.07
2019-03-18T01:37:43.691Z,6.93
2019-03-18T01:40:13.960Z,8.83
2019-03-18T01:42:43.348Z,10.67
2019-03-18T01:45:13.000Z,7.00
2019-03-18T01:47:42.390Z,9.97
2019-03-18T01:50:14.104Z,11.13
2019-03-18T01:52:43.435Z,6.13
2019-03-18T01:55:12.925Z,11.07
2019-03-18T01:57:42.263Z,12.47
2019-03-18T02:00:15.604Z,9.83
2019-03-18T02:02:44.952Z,8.93
2019-03-18T02:05:14.260Z,12.37
2019-03-18T02:07:43.605Z,10.10
2019-03-18T02:10:14.371Z,15.37
2019-03-18T02:12:43.961Z,9.13
2019-03-18T02:15:14.799Z,7.70
2019-03-18T02:17:44.115Z,5.13
2019-03-18T02:20:19.777Z,8.00
2019-03-18T02:22:48.491Z,5.43
2019-03-18T02:25:17.887Z,6.90
2019-03-18T02:27:47.222Z,5.97
2019-03-18T02:30:17.836Z,5.10
2019-03-18T02:32:47.274Z,5.63
2019-03-18T02:35:16.769Z,10.37
2019-03-18T02:37:46.228Z,7.17
2019-03-18T02:40:15.548Z,7.43
2019-03-18T02:42:44.863Z,8.40
2019-03-18T02:45:14.191Z,9.57
2019-03-18T02:47:43.574Z,8.07
2019-03-18T02:50:12.905Z,11.73
2019-03-18T02:52:42.213Z,9.33
2019-03-18T02:55:11.545Z,9.20
2019-03-18T02:57:40.922Z,9.37
2019-03-18T03:00:12.589Z,10.27
2019-03-18T03:02:41.969Z,5.57
2019-03-18T03:05:12.574Z,10.80
2019-03-18T03:07:41.972Z,12.20
2019-03-18T03:10:12.910Z,15.40
2019-03-18T03:12:42.244Z,10.33
2019-03-18T03:15:13.100Z,9.27
2019-03-18T03:17:42.484Z,9.63
2019-03-18T03:20:12.640Z,8.57
2019-03-18T03:22:41.962Z,5.73
2019-03-18T03:25:11.788Z,7.83
2019-03-18T03:27:41.121Z,10.10
2019-03-18T03:30:14.523Z,7.57
2019-03-18T03:32:43.971Z,10.13
2019-03-18T03:35:13.582Z,10.37
2019-03-18T03:37:43.238Z,12.87
2019-03-18T03:40:12.924Z,11.77
2019-03-18T03:42:42.279Z,9.87
2019-03-18T03:45:13.098Z,10.33
2019-03-18T03:47:43.382Z,10.17
2019-03-18T03:50:15.712Z,10.67
2019-03-18T03:52:45.092Z,11.33
2019-03-18T03:55:14.727Z,8.13
2019-03-18T03:57:44.440Z,22.93
2019-03-18T04:00:15.590Z,18.73
2019-03-18T04:02:45.009Z,15.87
2019-03-18T04:05:14.439Z,17.03
2019-03-18T04:07:44.011Z,17.30
2019-03-18T04:10:14.287Z,14.17
2019-03-18T04:12:43.714Z,19.30
2019-03-18T04:15:15.310Z,14.80
2019-03-18T04:17:44.792Z,18.97
2019-03-18T04:20:15.247Z,14.43
2019-03-18T04:22:44.731Z,12.83
2019-03-18T04:25:14.148Z,14.50
2019-03-18T04:27:43.561Z,11.27
2019-03-18T04:30:14.919Z,17.10
2019-03-18T04:32:44.248Z,14.53
2019-03-18T04:35:13.575Z,14.23
2019-03-18T04:37:42.971Z,16.97
2019-03-18T04:40:12.458Z,16.70
2019-03-18T04:42:41.791Z,14.17
2019-03-18T04:45:11.268Z,15.63
2019-03-18T04:47:40.611Z,18.43
2019-03-18T04:50:11.425Z,21.53
2019-03-18T04:52:40.751Z,16.07
2019-03-18T04:55:10.144Z,26.03
2019-03-18T04:57:39.491Z,20.00
2019-03-18T05:00:15.181Z,21.63
2019-03-18T05:02:44.508Z,21.23
2019-03-18T05:05:13.828Z,25.67
2019-03-18T05:07:43.189Z,25.97
2019-03-18T05:10:12.754Z,24.20
2019-03-18T05:12:42.105Z,17.33
2019-03-18T05:15:11.838Z,26.37
2019-03-18T05:17:41.227Z,22.80
2019-03-18T05:20:11.589Z,22.60
2019-03-18T05:22:40.975Z,30.57
2019-03-18T05:25:10.937Z,25.17
2019-03-18T05:27:40.263Z,24.60
2019-03-18T05:30:11.527Z,23.43
2019-03-18T05:32:40.851Z,27.83
2019-03-18T05:35:10.548Z,15.93
2019-03-18T05:37:39.901Z,28.13
2019-03-18T05:40:09.291Z,28.73
2019-03-18T05:42:39.691Z,22.70
2019-03-18T05:45:10.961Z,25.67
2019-03-18T05:47:41.316Z,22.30
2019-03-18T05:50:11.494Z,23.50
2019-03-18T05:52:40.814Z,24.97
2019-03-18T05:55:10.715Z,26.37
2019-03-18T05:57:40.036Z,21.93
2019-03-18T06:00:13.754Z,23.83
2019-03-18T06:02:43.075Z,22.60
2019-03-18T06:05:12.479Z,26.60
2019-03-18T06:07:41.787Z,27.27
2019-03-18T06:10:12.481Z,25.73
2019-03-18T06:12:41.870Z,23.27
2019-03-18T06:15:12.435Z,22.43
2019-03-18T06:17:51.613Z,22.47
2019-03-18T06:20:13.039Z,29.43
2019-03-18T06:22:43.424Z,25.23
2019-03-18T06:25:12.773Z,26.00
2019-03-18T06:27:42.229Z,22.40
2019-03-18T06:30:13.872Z,29.17
2019-03-18T06:32:43.258Z,25.27
2019-03-18T06:35:12.693Z,18.23
2019-03-18T06:37:42.300Z,20.83
2019-03-18T06:40:13.931Z,16.87
2019-03-18T06:42:43.249Z,20.40
2019-03-18T06:45:12.853Z,23.17
2019-03-18T06:47:42.255Z,21.27
2019-03-18T06:50:12.627Z,20.07
2019-03-18T06:52:41.985Z,23.87
2019-03-18T06:55:11.318Z,28.53
2019-03-18T06:57:40.631Z,22.97
2019-03-18T07:00:12.474Z,20.97
2019-03-18T07:02:41.779Z,18.70
2019-03-18T07:05:11.282Z,21.87
2019-03-18T07:07:40.599Z,21.33
2019-03-18T07:10:11.766Z,24.47
2019-03-18T07:12:41.102Z,22.40
2019-03-18T07:15:10.987Z,20.93
2019-03-18T07:17:40.325Z,17.77
2019-03-18T07:20:12.013Z,21.30
2019-03-18T07:22:42.388Z,19.77
2019-03-18T07:25:11.872Z,24.83
2019-03-18T07:27:41.203Z,19.33
2019-03-18T07:30:12.379Z,16.93
2019-03-18T07:32:41.704Z,21.90
2019-03-18T07:35:11.024Z,15.77
2019-03-18T07:37:40.464Z,21.97
2019-03-18T07:40:11.924Z,21.13
2019-03-18T07:42:41.247Z,25.00
2019-03-18T07:45:15.631Z,16.03
2019-03-18T07:47:44.291Z,23.67
2019-03-18T07:50:14.835Z,20.43
2019-03-18T07:52:44.169Z,26.23
2019-03-18T07:55:13.548Z,17.67
2019-03-18T07:57:42.882Z,15.20
2019-03-18T08:00:13.843Z,14.90
2019-03-18T08:02:44.212Z,15.90
2019-03-18T08:05:13.541Z,27.77
2019-03-18T08:07:42.942Z,30.80
2019-03-18T08:10:13.210Z,20.07
2019-03-18T08:12:42.606Z,15.90
2019-03-18T08:15:12.858Z,14.70
2019-03-18T08:17:42.197Z,17.90
2019-03-18T08:20:12.209Z,16.37
2019-03-18T08:22:41.547Z,13.03
2019-03-18T08:25:11.409Z,13.00
2019-03-18T08:27:40.814Z,14.80
2019-03-18T08:30:12.520Z,13.30
2019-03-18T08:32:41.851Z,14.60
2019-03-18T08:35:11.212Z,14.07
2019-03-18T08:37:40.642Z,13.20
2019-03-18T08:40:11.307Z,12.17
2019-03-18T08:42:40.706Z,12.53
2019-03-18T08:45:12.393Z,13.63
2019-03-18T08:47:41.785Z,11.27
2019-03-18T08:50:12.383Z,20.73
2019-03-18T08:52:42.295Z,14.70
2019-03-18T08:55:12.047Z,16.03
2019-03-18T08:57:41.370Z,16.83
2019-03-18T09:00:13.864Z,18.93
2019-03-18T09:02:43.188Z,16.93
2019-03-18T09:05:13.271Z,16.57
2019-03-18T09:07:42.676Z,18.10
2019-03-18T09:10:14.418Z,17.80
2019-03-18T09:12:43.814Z,16.07
2019-03-18T09:15:13.879Z,20.17
2019-03-18T09:17:43.204Z,25.07
2019-03-18T09:20:16.256Z,21.53
2019-03-18T09:22:45.566Z,24.33
2019-03-18T09:25:15.971Z,31.07
2019-03-18T09:27:45.295Z,25.83
2019-03-18T09:30:19.191Z,26.10
2019-03-18T09:32:48.682Z,24.00
2019-03-18T09:35:17.999Z,24.20
2019-03-18T09:37:47.329Z,26.83
2019-03-18T09:40:17.490Z,20.73
2019-03-18T09:42:47.958Z,15.50
2019-03-18T09:45:18.063Z,19.37
2019-03-18T09:47:47.549Z,16.97
2019-03-18T09:50:16.887Z,17.90
2019-03-18T09:52:46.270Z,13.97
2019-03-18T09:55:15.595Z,13.90
2019-03-18T09:57:44.911Z,20.93
2019-03-18T10:00:18.413Z,14.00
2019-03-18T10:02:47.748Z,20.23
2019-03-18T10:05:17.074Z,12.73
2019-03-18T10:07:46.384Z,15.90
2019-03-18T10:10:15.882Z,18.43
2019-03-18T10:12:45.212Z,13.83
2019-03-18T10:15:17.515Z,26.90
2019-03-18T10:17:46.897Z,21.27
2019-03-18T10:20:16.233Z,30.07
2019-03-18T10:22:45.543Z,23.27
2019-03-18T10:25:14.869Z,25.50
2019-03-18T10:27:44.188Z,20.90
2019-03-18T10:30:14.951Z,27.73
2019-03-18T10:32:44.270Z,22.33
2019-03-18T10:35:13.825Z,21.80
2019-03-18T10:37:43.187Z,26.27
2019-03-18T10:40:14.211Z,27.43
2019-03-18T10:42:43.535Z,27.23
2019-03-18T10:45:13.596Z,27.37
2019-03-18T10:47:42.924Z,22.83
2019-03-18T10:50:18.643Z,19.73
2019-03-18T10:52:47.989Z,21.27
2019-03-18T10:55:17.374Z,20.17
2019-03-18T10:57:46.764Z,23.10
2019-03-18T11:00:19.192Z,20.50
2019-03-18T11:02:48.765Z,17.40
2019-03-18T11:05:18.161Z,22.70
2019-03-18T11:07:47.584Z,26.80
2019-03-18T11:10:17.176Z,22.50
2019-03-18T11:12:46.577Z,25.93
2019-03-18T11:15:20.846Z,28.10
2019-03-18T11:17:50.369Z,23.17
2019-03-18T11:20:19.679Z,19.50
2019-03-18T11:22:49.026Z,26.73
2019-03-18T11:25:18.362Z,22.97
2019-03-18T11:27:47.678Z,21.33
2019-03-18T11:30:17.941Z,21.33
2019-03-18T11:32:47.259Z,17.60
2019-03-18T11:35:16.578Z,31.10
2019-03-18T11:37:45.989Z,25.37
2019-03-18T11:40:24.288Z,32.37
2019-03-18T11:42:53.613Z,21.20
2019-03-18T11:45:23.015Z,22.13
2019-03-18T11:47:52.431Z,29.27
2019-03-18T11:50:21.770Z,30.57
2019-03-18T11:52:51.123Z,26.83
2019-03-18T11:55:26.622Z,22.37
2019-03-18T11:58:00.761Z,24.40
2019-03-18T12:00:35.423Z,24.27
2019-03-18T12:03:06.748Z,30.10
2019-03-18T12:05:36.064Z,19.83
2019-03-18T12:08:05.394Z,19.90
2019-03-18T12:10:34.716Z,23.40
2019-03-18T12:13:04.216Z,15.53
2019-03-18T12:15:36.329Z,14.43
2019-03-18T12:18:04.714Z,14.57
2019-03-18T12:20:34.041Z,18.43
2019-03-18T12:23:03.371Z,14.00
2019-03-18T12:25:33.846Z,14.60
2019-03-18T12:28:05.171Z,20.90
2019-03-18T12:30:34.431Z,18.60
2019-03-18T12:33:04.815Z,12.77
2019-03-18T12:35:34.212Z,14.33
2019-03-18T12:38:03.552Z,18.03
2019-03-18T12:40:32.882Z,13.93
2019-03-18T12:43:02.271Z,17.30
2019-03-18T12:45:31.592Z,16.97
2019-03-18T12:48:00.963Z,23.67
2019-03-18T12:50:49.309Z,27.80
2019-03-18T12:53:01.465Z,20.03
2019-03-18T12:55:30.859Z,15.70
2019-03-18T12:58:00.184Z,20.40
2019-03-18T13:00:33.994Z,12.67
2019-03-18T13:03:03.603Z,16.27
2019-03-18T13:05:33.103Z,14.80
2019-03-18T13:08:02.510Z,13.20
2019-03-18T13:10:31.950Z,12.73
2019-03-18T13:13:01.329Z,17.47
2019-03-18T13:15:30.669Z,18.70
2019-03-18T13:17:59.979Z,14.27
2019-03-18T13:20:29.307Z,15.17
2019-03-18T13:22:58.633Z,13.57
2019-03-18T13:25:27.985Z,15.70
2019-03-18T13:27:57.461Z,22.20
2019-03-18T13:30:26.788Z,20.27
2019-03-18T13:32:56.099Z,16.60
2019-03-18T13:35:25.427Z,17.97
2019-03-18T13:37:54.744Z,20.63
2019-03-18T13:40:24.076Z,22.10
2019-03-18T13:42:54.355Z,17.97
2019-03-18T13:45:24.061Z,19.87
2019-03-18T13:47:53.387Z,20.97
2019-03-18T13:50:22.867Z,25.83
2019-03-18T13:52:52.189Z,20.57
2019-03-18T13:55:21.527Z,24.30
2019-03-18T13:57:50.835Z,19.63
2019-03-18T14:00:21.103Z,26.70
2019-03-18T14:02:50.450Z,18.40
2019-03-18T14:05:20.936Z,20.00
2019-03-18T14:08:00.388Z,22.67
2019-03-18T14:10:22.920Z,18.30
2019-03-18T14:12:53.425Z,15.20
2019-03-18T14:15:25.673Z,23.83
2019-03-18T14:17:55.054Z,34.80
2019-03-18T14:20:25.638Z,21.93
2019-03-18T14:22:56.120Z,16.70
2019-03-18T14:25:25.557Z,18.17
2019-03-18T14:27:54.923Z,18.97
2019-03-18T14:30:24.345Z,19.73
2019-03-18T14:32:53.736Z,19.70
2019-03-18T14:35:23.069Z,13.77
2019-03-18T14:37:52.382Z,16.07
2019-03-18T14:40:23.815Z,12.67
2019-03-18T14:42:53.135Z,12.97
2019-03-18T14:45:25.559Z,17.77
2019-03-18T14:47:54.950Z,14.83
2019-03-18T14:50:24.287Z,14.20
2019-03-18T14:52:54.009Z,18.13
2019-03-18T14:55:23.555Z,18.67
2019-03-18T14:57:52.919Z,13.90
2019-03-18T15:00:29.325Z,13.73
2019-03-18T15:02:58.658Z,16.33
2019-03-18T15:05:28.052Z,23.80
2019-03-18T15:07:57.371Z,12.70
2019-03-18T15:10:30.181Z,24.27
2019-03-18T15:12:59.498Z,14.87
2019-03-18T15:15:28.911Z,26.90
2019-03-18T15:17:58.288Z,22.50
2019-03-18T15:20:28.444Z,24.40
2019-03-18T15:22:57.775Z,24.40
2019-03-18T15:25:34.888Z,19.03
2019-03-18T15:28:04.470Z,21.63
2019-03-18T15:30:33.914Z,19.57
2019-03-18T15:33:03.250Z,21.07
2019-03-18T15:35:32.650Z,22.83
2019-03-18T15:38:01.977Z,15.60
2019-03-18T15:40:31.393Z,26.13
2019-03-18T15:43:00.819Z,20.47
2019-03-18T15:45:30.164Z,20.77
2019-03-18T15:48:00.157Z,20.07
2019-03-18T15:50:30.481Z,17.20
2019-03-18T15:52:59.852Z,27.63
2019-03-18T15:55:29.183Z,29.00
2019-03-18T15:57:58.520Z,22.10
2019-03-18T16:00:29.643Z,27.07
2019-03-18T16:02:59.134Z,25.97
2019-03-18T16:05:28.464Z,31.67
2019-03-18T16:07:57.784Z,28.27
2019-03-18T16:10:27.126Z,23.13
2019-03-18T16:12:56.521Z,25.07
2019-03-18T16:15:25.849Z,18.70
2019-03-18T16:17:55.174Z,15.83
2019-03-18T16:20:25.367Z,19.53
2019-03-18T16:22:54.689Z,23.77
2019-03-18T16:25:24.983Z,29.70
2019-03-18T16:27:54.355Z,27.87
2019-03-18T16:30:23.879Z,20.40
2019-03-18T16:32:53.219Z,28.73
2019-03-18T16:35:22.615Z,23.37
2019-03-18T16:37:52.039Z,28.60
2019-03-18T16:40:22.170Z,21.23
2019-03-18T16:42:51.528Z,28.17
2019-03-18T16:45:21.891Z,15.37
2019-03-18T16:47:51.226Z,17.37
2019-03-18T16:50:25.307Z,13.70
2019-03-18T16:52:54.625Z,16.43
2019-03-18T16:55:23.944Z,12.70
2019-03-18T16:57:53.265Z,14.53
2019-03-18T17:00:24.624Z,19.53
2019-03-18T17:02:54.012Z,20.23
2019-03-18T17:05:23.404Z,19.93
2019-03-18T17:07:54.323Z,18.53
2019-03-18T17:10:24.047Z,14.37
2019-03-18T17:12:53.446Z,19.57
2019-03-18T17:15:23.092Z,15.33
2019-03-18T17:17:52.480Z,18.93
2019-03-18T17:20:21.801Z,22.40
2019-03-18T17:22:51.129Z,19.70
2019-03-18T17:25:28.312Z,23.57
2019-03-18T17:27:57.639Z,18.43
2019-03-18T17:30:27.137Z,21.57
2019-03-18T17:32:56.682Z,35.07
2019-03-18T17:35:26.077Z,26.40
2019-03-18T17:37:55.404Z,36.40
2019-03-18T17:40:24.768Z,29.20
2019-03-18T17:42:54.185Z,31.07
2019-03-18T17:45:23.522Z,30.77
2019-03-18T17:47:52.856Z,24.70
2019-03-18T17:50:29.320Z,32.93
2019-03-18T17:53:03.168Z,33.60
2019-03-18T17:55:29.696Z,26.83
2019-03-18T17:57:59.214Z,36.53
2019-03-18T18:00:33.000Z,24.07
2019-03-18T18:03:02.441Z,13.87
2019-03-18T18:05:31.751Z,16.67
2019-03-18T18:08:01.099Z,16.30
2019-03-18T18:10:30.417Z,20.50
2019-03-18T18:12:59.745Z,15.20
2019-03-18T18:15:29.055Z,12.97
2019-03-18T18:17:58.423Z,13.90
2019-03-18T18:20:27.784Z,12.93
2019-03-18T18:22:57.133Z,22.30
2019-03-18T18:25:26.453Z,15.47
2019-03-18T18:27:56.049Z,16.00
2019-03-18T18:30:25.364Z,13.20
2019-03-18T18:32:54.692Z,11.17
2019-03-18T18:35:23.999Z,9.53
2019-03-18T18:37:53.363Z,15.10
2019-03-18T18:40:27.439Z,16.57
2019-03-18T18:42:56.770Z,13.97
2019-03-18T18:45:26.079Z,15.37
2019-03-18T18:47:55.402Z,17.87
2019-03-18T18:50:24.713Z,7.50
2019-03-18T18:52:54.051Z,9.07
2019-03-18T18:55:24.356Z,10.93
2019-03-18T18:57:53.851Z,10.10
2019-03-18T19:00:23.365Z,13.47
2019-03-18T19:02:52.687Z,14.97
2019-03-18T19:05:22.026Z,11.23
2019-03-18T19:07:51.410Z,11.63
2019-03-18T19:10:21.674Z,9.93
2019-03-18T19:12:50.988Z,12.63
2019-03-18T19:15:24.547Z,11.13
2019-03-18T19:17:53.891Z,10.60
2019-03-18T19:20:23.392Z,8.33
2019-03-18T19:22:52.704Z,15.10
2019-03-18T19:25:22.027Z,13.43
2019-03-18T19:27:51.343Z,8.47
2019-03-18T19:30:21.395Z,11.63
2019-03-18T19:32:50.869Z,10.40
2019-03-18T19:35:20.427Z,15.93
2019-03-18T19:37:49.749Z,10.30
2019-03-18T19:40:20.405Z,18.30
2019-03-18T19:42:49.726Z,14.57
2019-03-18T19:45:19.127Z,10.53
2019-03-18T19:47:49.403Z,12.13
2019-03-18T19:50:32.089Z,21.83
2019-03-18T19:53:01.400Z,12.87
2019-03-18T19:55:31.909Z,18.00
2019-03-18T19:58:01.227Z,10.53
2019-03-18T20:00:31.087Z,20.70
2019-03-18T20:03:00.480Z,20.40
2019-03-18T20:05:29.887Z,18.07
2019-03-18T20:07:59.259Z,17.83
2019-03-18T20:10:28.603Z,15.47
2019-03-18T20:12:57.917Z,18.87
2019-03-18T20:15:27.254Z,19.90
2019-03-18T20:17:56.565Z,16.03
2019-03-18T20:20:25.925Z,21.73
2019-03-18T20:22:55.298Z,18.13
2019-03-18T20:25:24.638Z,16.17
2019-03-18T20:27:54.011Z,19.77
2019-03-18T20:30:23.504Z,35.67
2019-03-18T20:32:52.864Z,38.73
2019-03-18T20:35:23.445Z,25.97
2019-03-18T20:37:52.931Z,21.17
2019-03-18T20:40:22.285Z,21.17
2019-03-18T20:42:51.667Z,20.93
2019-03-18T20:45:24.962Z,15.13
2019-03-18T20:47:54.288Z,19.43
2019-03-18T20:50:24.451Z,19.83
2019-03-18T20:52:53.820Z,15.00
2019-03-18T20:55:23.172Z,26.03
2019-03-18T20:57:52.576Z,17.83
2019-03-18T21:00:22.931Z,20.53
2019-03-18T21:02:52.427Z,19.77
2019-03-18T21:05:25.427Z,19.17
2019-03-18T21:07:55.463Z,25.20
2019-03-18T21:10:24.796Z,16.27
2019-03-18T21:12:54.201Z,22.27
2019-03-18T21:15:23.508Z,25.47
2019-03-18T21:17:52.865Z,30.10
2019-03-18T21:20:24.943Z,17.73
2019-03-18T21:22:54.267Z,25.73
2019-03-18T21:25:23.694Z,23.53
2019-03-18T21:27:54.148Z,19.90
2019-03-18T21:30:23.799Z,21.93
2019-03-18T21:32:53.150Z,24.27
2019-03-18T21:35:23.103Z,23.87
2019-03-18T21:37:52.497Z,22.30
2019-03-18T21:40:21.932Z,31.57
2019-03-18T21:42:51.371Z,23.83
2019-03-18T21:45:23.535Z,19.03
2019-03-18T21:47:52.969Z,27.53
2019-03-18T21:50:22.286Z,20.27
2019-03-18T21:52:51.752Z,17.67
2019-03-18T21:55:21.159Z,20.23
2019-03-18T21:57:50.486Z,22.70
2019-03-18T22:00:23.359Z,18.33
2019-03-18T22:02:52.756Z,18.00
2019-03-18T22:05:22.075Z,16.57
2019-03-18T22:07:51.408Z,17.20
2019-03-18T22:10:21.261Z,21.13
2019-03-18T22:12:50.670Z,18.40
2019-03-18T22:15:19.989Z,24.83
2019-03-18T22:17:49.332Z,14.73
2019-03-18T22:20:19.451Z,22.43
2019-03-18T22:22:48.850Z,20.73
2019-03-18T22:25:18.197Z,13.03
2019-03-18T22:27:47.570Z,13.30
2019-03-18T22:30:20.263Z,14.40
2019-03-18T22:32:49.610Z,12.37
2019-03-18T22:35:18.993Z,9.60
2019-03-18T22:37:48.304Z,15.30
2019-03-18T22:40:18.191Z,15.03
2019-03-18T22:42:47.503Z,13.70
2019-03-18T22:45:17.679Z,7.87
2019-03-18T22:47:47.014Z,12.00
2019-03-18T22:50:17.824Z,16.20
2019-03-18T22:52:47.139Z,14.20
2019-03-18T22:55:16.643Z,12.23
2019-03-18T22:57:47.031Z,14.20
2019-03-18T23:00:22.621Z,15.90
2019-03-18T23:02:53.564Z,14.93
2019-03-18T23:05:22.959Z,13.43
2019-03-18T23:07:52.269Z,11.53
2019-03-18T23:10:21.591Z,16.87
2019-03-18T23:12:52.375Z,18.97
2019-03-18T23:15:21.699Z,13.40
2019-03-18T23:17:51.199Z,9.60
2019-03-18T23:20:20.523Z,15.30
2019-03-18T23:22:49.839Z,12.90
2019-03-18T23:25:19.159Z,13.40
2019-03-18T23:27:48.475Z,9.07
2019-03-18T23:30:17.804Z,13.90
2019-03-18T23:32:47.123Z,16.20
2019-03-18T23:35:16.475Z,13.20
2019-03-18T23:37:45.787Z,12.97
2019-03-18T23:40:15.387Z,16.10
2019-03-18T23:42:44.708Z,16.50
2019-03-18T23:45:14.235Z,12.13
2019-03-18T23:47:43.607Z,13.83
2019-03-18T23:50:14.549Z,15.47
2019-03-18T23:52:44.039Z,10.37
2019-03-18T23:55:19.359Z,13.50
2019-03-18T23:57:44.407Z,12.57
